sensor_id;sensor_type;location;lat;lon;timestamp;P1;durP1;ratioP1;P2;durP2;ratioP2
35418;SDS011;21525;41.240;16.500;2022-10-16T00:01:08;42.05;;;31.90;;
35418;SDS011;21525;41.240;16.500;2022-10-16T00:03:36;40.20;;;33.20;;
35418;SDS011;21525;41.240;16.500;2022-10-16T00:06:06;42.58;;;33.05;;
35418;SDS011;21525;41.240;16.500;2022-10-16T00:08:33;40.72;;;31.92;;
35418;SDS011;21525;41.240;16.500;2022-10-16T00:11:05;37.35;;;31.17;;
35418;SDS011;21525;41.240;16.500;2022-10-16T00:13:33;45.33;;;32.25;;
35418;SDS011;21525;41.240;16.500;2022-10-16T00:16:01;39.47;;;29.85;;
35418;SDS011;21525;41.240;16.500;2022-10-16T00:18:27;40.50;;;31.25;;
35418;SDS011;21525;41.240;16.500;2022-10-16T00:20:54;37.92;;;29.83;;
35418;SDS011;21525;41.240;16.500;2022-10-16T00:23:39;39.75;;;30.85;;
35418;SDS011;21525;41.240;16.500;2022-10-16T00:26:08;37.83;;;31.20;;
35418;SDS011;21525;41.240;16.500;2022-10-16T00:28:38;41.25;;;31.92;;
35418;SDS011;21525;41.240;16.500;2022-10-16T00:31:04;40.58;;;31.98;;
35418;SDS011;21525;41.240;16.500;2022-10-16T00:33:35;41.42;;;30.70;;
35418;SDS011;21525;41.240;16.500;2022-10-16T00:36:02;41.42;;;30.52;;
35418;SDS011;21525;41.240;16.500;2022-10-16T00:38:29;37.20;;;29.40;;
35418;SDS011;21525;41.240;16.500;2022-10-16T00:40:55;39.50;;;30.80;;
35418;SDS011;21525;41.240;16.500;2022-10-16T00:43:38;44.42;;;31.83;;
35418;SDS011;21525;41.240;16.500;2022-10-16T00:46:20;38.53;;;30.98;;
35418;SDS011;21525;41.240;16.500;2022-10-16T00:48:50;40.30;;;31.40;;
35418;SDS011;21525;41.240;16.500;2022-10-16T00:51:36;44.53;;;33.30;;
35418;SDS011;21525;41.240;16.500;2022-10-16T00:54:04;38.53;;;30.90;;
35418;SDS011;21525;41.240;16.500;2022-10-16T00:56:36;39.40;;;32.10;;
35418;SDS011;21525;41.240;16.500;2022-10-16T00:59:03;41.65;;;31.80;;
35418;SDS011;21525;41.240;16.500;2022-10-16T01:01:32;38.58;;;30.30;;
35418;SDS011;21525;41.240;16.500;2022-10-16T01:03:58;43.72;;;31.73;;
35418;SDS011;21525;41.240;16.500;2022-10-16T01:06:26;40.05;;;31.52;;
35418;SDS011;21525;41.240;16.500;2022-10-16T01:09:04;41.80;;;32.33;;
35418;SDS011;21525;41.240;16.500;2022-10-16T01:11:44;38.22;;;30.35;;
35418;SDS011;21525;41.240;16.500;2022-10-16T01:14:16;41.25;;;32.58;;
35418;SDS011;21525;41.240;16.500;2022-10-16T01:17:06;38.75;;;30.65;;
35418;SDS011;21525;41.240;16.500;2022-10-16T01:22:33;44.83;;;30.65;;
35418;SDS011;21525;41.240;16.500;2022-10-16T01:25:19;40.33;;;30.23;;
35418;SDS011;21525;41.240;16.500;2022-10-16T01:28:13;38.72;;;29.70;;
35418;SDS011;21525;41.240;16.500;2022-10-16T01:35:41;40.58;;;31.45;;
35418;SDS011;21525;41.240;16.500;2022-10-16T01:40:38;39.28;;;29.73;;
35418;SDS011;21525;41.240;16.500;2022-10-16T01:43:08;39.30;;;29.80;;
35418;SDS011;21525;41.240;16.500;2022-10-16T01:45:38;36.75;;;29.35;;
35418;SDS011;21525;41.240;16.500;2022-10-16T01:48:06;41.10;;;29.83;;
35418;SDS011;21525;41.240;16.500;2022-10-16T01:50:35;39.58;;;29.77;;
35418;SDS011;21525;41.240;16.500;2022-10-16T01:53:05;39.30;;;29.95;;
35418;SDS011;21525;41.240;16.500;2022-10-16T01:55:36;38.47;;;30.67;;
35418;SDS011;21525;41.240;16.500;2022-10-16T01:58:09;41.38;;;29.80;;
35418;SDS011;21525;41.240;16.500;2022-10-16T02:00:37;40.33;;;29.73;;
35418;SDS011;21525;41.240;16.500;2022-10-16T02:03:05;39.03;;;28.97;;
35418;SDS011;21525;41.240;16.500;2022-10-16T02:08:03;39.15;;;30.08;;
35418;SDS011;21525;41.240;16.500;2022-10-16T02:10:29;42.25;;;30.52;;
35418;SDS011;21525;41.240;16.500;2022-10-16T02:12:58;38.50;;;29.77;;
35418;SDS011;21525;41.240;16.500;2022-10-16T02:15:30;37.30;;;29.17;;
35418;SDS011;21525;41.240;16.500;2022-10-16T02:17:55;38.70;;;29.50;;
35418;SDS011;21525;41.240;16.500;2022-10-16T02:20:22;37.53;;;29.05;;
35418;SDS011;21525;41.240;16.500;2022-10-16T02:22:52;38.35;;;29.85;;
35418;SDS011;21525;41.240;16.500;2022-10-16T02:28:11;38.70;;;29.05;;
35418;SDS011;21525;41.240;16.500;2022-10-16T02:30:45;39.17;;;28.65;;
35418;SDS011;21525;41.240;16.500;2022-10-16T02:33:14;39.08;;;29.83;;
35418;SDS011;21525;41.240;16.500;2022-10-16T02:35:41;40.08;;;29.50;;
35418;SDS011;21525;41.240;16.500;2022-10-16T02:38:10;36.50;;;28.58;;
35418;SDS011;21525;41.240;16.500;2022-10-16T02:40:37;36.65;;;29.60;;
35418;SDS011;21525;41.240;16.500;2022-10-16T02:43:04;43.05;;;30.38;;
35418;SDS011;21525;41.240;16.500;2022-10-16T02:45:30;38.28;;;28.88;;
35418;SDS011;21525;41.240;16.500;2022-10-16T02:47:56;39.80;;;29.05;;
35418;SDS011;21525;41.240;16.500;2022-10-16T02:50:22;38.72;;;28.67;;
35418;SDS011;21525;41.240;16.500;2022-10-16T02:52:49;38.50;;;28.58;;
35418;SDS011;21525;41.240;16.500;2022-10-16T02:55:15;39.17;;;28.95;;
35418;SDS011;21525;41.240;16.500;2022-10-16T02:57:41;41.75;;;28.60;;
35418;SDS011;21525;41.240;16.500;2022-10-16T03:00:10;39.90;;;29.58;;
35418;SDS011;21525;41.240;16.500;2022-10-16T03:02:39;40.50;;;30.52;;
35418;SDS011;21525;41.240;16.500;2022-10-16T03:05:05;43.75;;;29.30;;
35418;SDS011;21525;41.240;16.500;2022-10-16T03:07:31;43.05;;;30.20;;
35418;SDS011;21525;41.240;16.500;2022-10-16T03:09:56;38.25;;;30.00;;
35418;SDS011;21525;41.240;16.500;2022-10-16T03:12:26;38.58;;;30.30;;
35418;SDS011;21525;41.240;16.500;2022-10-16T03:14:52;40.25;;;30.73;;
35418;SDS011;21525;41.240;16.500;2022-10-16T03:17:18;41.75;;;29.75;;
35418;SDS011;21525;41.240;16.500;2022-10-16T03:19:44;43.40;;;29.00;;
35418;SDS011;21525;41.240;16.500;2022-10-16T03:22:10;40.90;;;29.95;;
35418;SDS011;21525;41.240;16.500;2022-10-16T03:24:36;41.42;;;29.20;;
35418;SDS011;21525;41.240;16.500;2022-10-16T03:27:02;42.42;;;29.45;;
35418;SDS011;21525;41.240;16.500;2022-10-16T03:29:28;41.47;;;31.73;;
35418;SDS011;21525;41.240;16.500;2022-10-16T03:31:55;43.95;;;31.30;;
35418;SDS011;21525;41.240;16.500;2022-10-16T03:34:23;39.92;;;30.27;;
35418;SDS011;21525;41.240;16.500;2022-10-16T03:36:49;36.38;;;28.95;;
35418;SDS011;21525;41.240;16.500;2022-10-16T03:39:15;44.90;;;30.08;;
35418;SDS011;21525;41.240;16.500;2022-10-16T03:41:41;42.75;;;29.65;;
35418;SDS011;21525;41.240;16.500;2022-10-16T03:44:07;38.90;;;29.02;;
35418;SDS011;21525;41.240;16.500;2022-10-16T03:46:33;37.25;;;28.77;;
35418;SDS011;21525;41.240;16.500;2022-10-16T03:48:58;41.33;;;28.98;;
35418;SDS011;21525;41.240;16.500;2022-10-16T03:51:24;42.15;;;29.80;;
35418;SDS011;21525;41.240;16.500;2022-10-16T03:53:50;39.45;;;28.90;;
35418;SDS011;21525;41.240;16.500;2022-10-16T03:56:16;38.00;;;28.85;;
35418;SDS011;21525;41.240;16.500;2022-10-16T03:58:41;36.30;;;29.00;;
35418;SDS011;21525;41.240;16.500;2022-10-16T04:01:07;38.95;;;30.17;;
35418;SDS011;21525;41.240;16.500;2022-10-16T04:03:33;37.10;;;29.30;;
35418;SDS011;21525;41.240;16.500;2022-10-16T04:05:58;41.97;;;28.55;;
35418;SDS011;21525;41.240;16.500;2022-10-16T04:08:24;38.08;;;29.98;;
35418;SDS011;21525;41.240;16.500;2022-10-16T04:10:50;37.28;;;27.95;;
35418;SDS011;21525;41.240;16.500;2022-10-16T04:13:16;42.47;;;29.67;;
35418;SDS011;21525;41.240;16.500;2022-10-16T04:15:42;41.67;;;30.67;;
35418;SDS011;21525;41.240;16.500;2022-10-16T04:18:09;39.92;;;29.52;;
35418;SDS011;21525;41.240;16.500;2022-10-16T04:20:35;39.58;;;30.17;;
35418;SDS011;21525;41.240;16.500;2022-10-16T04:23:01;42.40;;;30.92;;
35418;SDS011;21525;41.240;16.500;2022-10-16T04:25:27;43.60;;;29.95;;
35418;SDS011;21525;41.240;16.500;2022-10-16T04:27:53;41.15;;;31.00;;
35418;SDS011;21525;41.240;16.500;2022-10-16T04:30:20;43.28;;;31.27;;
35418;SDS011;21525;41.240;16.500;2022-10-16T04:32:50;42.88;;;31.45;;
35418;SDS011;21525;41.240;16.500;2022-10-16T04:35:17;43.58;;;31.40;;
35418;SDS011;21525;41.240;16.500;2022-10-16T04:37:43;43.13;;;32.95;;
35418;SDS011;21525;41.240;16.500;2022-10-16T04:40:09;46.20;;;32.53;;
35418;SDS011;21525;41.240;16.500;2022-10-16T04:42:35;49.00;;;33.90;;
35418;SDS011;21525;41.240;16.500;2022-10-16T04:45:01;48.03;;;33.03;;
35418;SDS011;21525;41.240;16.500;2022-10-16T04:47:28;45.10;;;33.63;;
35418;SDS011;21525;41.240;16.500;2022-10-16T04:49:54;49.80;;;33.92;;
35418;SDS011;21525;41.240;16.500;2022-10-16T04:52:19;46.03;;;33.95;;
35418;SDS011;21525;41.240;16.500;2022-10-16T04:54:46;47.70;;;35.25;;
35418;SDS011;21525;41.240;16.500;2022-10-16T04:57:12;59.60;;;35.20;;
35418;SDS011;21525;41.240;16.500;2022-10-16T04:59:38;49.67;;;34.40;;
35418;SDS011;21525;41.240;16.500;2022-10-16T05:02:04;44.55;;;32.47;;
35418;SDS011;21525;41.240;16.500;2022-10-16T05:04:30;47.33;;;35.42;;
35418;SDS011;21525;41.240;16.500;2022-10-16T05:06:56;47.47;;;35.60;;
35418;SDS011;21525;41.240;16.500;2022-10-16T05:09:21;53.63;;;36.92;;
35418;SDS011;21525;41.240;16.500;2022-10-16T05:11:47;51.78;;;35.63;;
35418;SDS011;21525;41.240;16.500;2022-10-16T05:14:13;47.97;;;35.55;;
35418;SDS011;21525;41.240;16.500;2022-10-16T05:16:39;48.13;;;35.17;;
35418;SDS011;21525;41.240;16.500;2022-10-16T05:19:05;47.83;;;35.28;;
35418;SDS011;21525;41.240;16.500;2022-10-16T05:21:30;48.70;;;36.85;;
35418;SDS011;21525;41.240;16.500;2022-10-16T05:23:56;48.80;;;36.60;;
35418;SDS011;21525;41.240;16.500;2022-10-16T05:26:22;48.45;;;35.85;;
35418;SDS011;21525;41.240;16.500;2022-10-16T05:28:48;46.63;;;35.70;;
35418;SDS011;21525;41.240;16.500;2022-10-16T05:31:15;47.15;;;35.10;;
35418;SDS011;21525;41.240;16.500;2022-10-16T05:33:41;49.35;;;36.17;;
35418;SDS011;21525;41.240;16.500;2022-10-16T05:36:07;51.38;;;34.20;;
35418;SDS011;21525;41.240;16.500;2022-10-16T05:38:34;47.80;;;35.72;;
35418;SDS011;21525;41.240;16.500;2022-10-16T05:41:01;51.05;;;34.75;;
35418;SDS011;21525;41.240;16.500;2022-10-16T05:43:29;47.15;;;36.42;;
35418;SDS011;21525;41.240;16.500;2022-10-16T05:46:00;48.10;;;35.45;;
35418;SDS011;21525;41.240;16.500;2022-10-16T05:48:27;54.78;;;37.35;;
35418;SDS011;21525;41.240;16.500;2022-10-16T05:50:57;46.75;;;35.60;;
35418;SDS011;21525;41.240;16.500;2022-10-16T05:53:24;52.42;;;38.17;;
35418;SDS011;21525;41.240;16.500;2022-10-16T05:55:54;53.55;;;37.45;;
35418;SDS011;21525;41.240;16.500;2022-10-16T05:58:21;50.28;;;37.92;;
35418;SDS011;21525;41.240;16.500;2022-10-16T06:00:54;50.00;;;39.70;;
35418;SDS011;21525;41.240;16.500;2022-10-16T06:03:21;53.30;;;37.85;;
35418;SDS011;21525;41.240;16.500;2022-10-16T06:05:47;48.28;;;35.85;;
35418;SDS011;21525;41.240;16.500;2022-10-16T06:08:13;45.22;;;35.75;;
35418;SDS011;21525;41.240;16.500;2022-10-16T06:10:39;41.08;;;34.88;;
35418;SDS011;21525;41.240;16.500;2022-10-16T06:13:04;42.03;;;34.35;;
35418;SDS011;21525;41.240;16.500;2022-10-16T06:15:30;43.97;;;35.35;;
35418;SDS011;21525;41.240;16.500;2022-10-16T06:17:56;43.67;;;36.40;;
35418;SDS011;21525;41.240;16.500;2022-10-16T06:20:23;43.95;;;36.25;;
35418;SDS011;21525;41.240;16.500;2022-10-16T06:22:48;44.33;;;38.05;;
35418;SDS011;21525;41.240;16.500;2022-10-16T06:25:14;44.13;;;38.00;;
35418;SDS011;21525;41.240;16.500;2022-10-16T06:27:40;44.25;;;38.97;;
35418;SDS011;21525;41.240;16.500;2022-10-16T06:30:06;46.35;;;41.33;;
35418;SDS011;21525;41.240;16.500;2022-10-16T06:32:33;45.20;;;40.40;;
35418;SDS011;21525;41.240;16.500;2022-10-16T06:34:59;55.20;;;42.75;;
35418;SDS011;21525;41.240;16.500;2022-10-16T06:37:24;53.33;;;43.83;;
35418;SDS011;21525;41.240;16.500;2022-10-16T06:39:50;56.67;;;46.33;;
35418;SDS011;21525;41.240;16.500;2022-10-16T06:42:19;50.63;;;45.10;;
35418;SDS011;21525;41.240;16.500;2022-10-16T06:44:45;50.38;;;45.13;;
35418;SDS011;21525;41.240;16.500;2022-10-16T06:47:10;54.35;;;47.72;;
35418;SDS011;21525;41.240;16.500;2022-10-16T06:49:36;56.10;;;50.30;;
35418;SDS011;21525;41.240;16.500;2022-10-16T06:52:02;60.28;;;53.50;;
35418;SDS011;21525;41.240;16.500;2022-10-16T06:54:28;63.15;;;56.45;;
35418;SDS011;21525;41.240;16.500;2022-10-16T06:56:54;64.22;;;57.42;;
35418;SDS011;21525;41.240;16.500;2022-10-16T06:59:20;61.38;;;54.75;;
35418;SDS011;21525;41.240;16.500;2022-10-16T07:01:46;62.30;;;55.58;;
35418;SDS011;21525;41.240;16.500;2022-10-16T07:04:12;61.05;;;54.75;;
35418;SDS011;21525;41.240;16.500;2022-10-16T07:06:38;57.83;;;52.08;;
35418;SDS011;21525;41.240;16.500;2022-10-16T07:09:06;54.50;;;48.75;;
35418;SDS011;21525;41.240;16.500;2022-10-16T07:11:34;49.05;;;43.90;;
35418;SDS011;21525;41.240;16.500;2022-10-16T07:14:01;46.33;;;41.65;;
35418;SDS011;21525;41.240;16.500;2022-10-16T07:21:16;53.20;;;48.10;;
35418;SDS011;21525;41.240;16.500;2022-10-16T07:26:48;126.55;;;115.28;;
35418;SDS011;21525;41.240;16.500;2022-10-16T07:29:14;54.38;;;49.25;;
35418;SDS011;21525;41.240;16.500;2022-10-16T07:31:42;55.15;;;49.97;;
35418;SDS011;21525;41.240;16.500;2022-10-16T07:34:08;59.58;;;53.85;;
35418;SDS011;21525;41.240;16.500;2022-10-16T07:36:35;43.10;;;38.90;;
35418;SDS011;21525;41.240;16.500;2022-10-16T07:39:01;49.17;;;44.17;;
35418;SDS011;21525;41.240;16.500;2022-10-16T07:41:28;44.15;;;39.60;;
35418;SDS011;21525;41.240;16.500;2022-10-16T07:43:54;38.45;;;34.60;;
35418;SDS011;21525;41.240;16.500;2022-10-16T07:46:22;34.15;;;30.65;;
35418;SDS011;21525;41.240;16.500;2022-10-16T07:48:49;33.72;;;30.13;;
35418;SDS011;21525;41.240;16.500;2022-10-16T07:51:16;32.15;;;28.95;;
35418;SDS011;21525;41.240;16.500;2022-10-16T07:53:43;34.15;;;28.65;;
35418;SDS011;21525;41.240;16.500;2022-10-16T07:56:09;34.63;;;31.20;;
35418;SDS011;21525;41.240;16.500;2022-10-16T07:58:37;34.65;;;31.17;;
35418;SDS011;21525;41.240;16.500;2022-10-16T08:01:04;38.42;;;31.02;;
35418;SDS011;21525;41.240;16.500;2022-10-16T08:03:30;37.20;;;33.22;;
35418;SDS011;21525;41.240;16.500;2022-10-16T08:05:57;34.35;;;30.75;;
35418;SDS011;21525;41.240;16.500;2022-10-16T08:08:23;39.50;;;31.10;;
35418;SDS011;21525;41.240;16.500;2022-10-16T08:10:49;41.80;;;37.58;;
35418;SDS011;21525;41.240;16.500;2022-10-16T08:13:15;37.15;;;32.83;;
35418;SDS011;21525;41.240;16.500;2022-10-16T08:15:41;40.85;;;36.30;;
35418;SDS011;21525;41.240;16.500;2022-10-16T08:18:08;39.80;;;32.08;;
35418;SDS011;21525;41.240;16.500;2022-10-16T08:20:35;33.33;;;29.47;;
35418;SDS011;21525;41.240;16.500;2022-10-16T08:23:01;34.55;;;30.02;;
35418;SDS011;21525;41.240;16.500;2022-10-16T08:25:27;39.42;;;32.80;;
35418;SDS011;21525;41.240;16.500;2022-10-16T08:27:53;33.97;;;30.48;;
35418;SDS011;21525;41.240;16.500;2022-10-16T08:30:20;34.53;;;29.63;;
35418;SDS011;21525;41.240;16.500;2022-10-16T08:32:47;35.78;;;29.35;;
35418;SDS011;21525;41.240;16.500;2022-10-16T08:35:14;37.33;;;30.63;;
35418;SDS011;21525;41.240;16.500;2022-10-16T08:37:40;36.30;;;29.02;;
35418;SDS011;21525;41.240;16.500;2022-10-16T08:40:07;34.72;;;30.90;;
35418;SDS011;21525;41.240;16.500;2022-10-16T08:48:45;35.03;;;28.95;;
35418;SDS011;21525;41.240;16.500;2022-10-16T08:51:33;33.10;;;29.38;;
35418;SDS011;21525;41.240;16.500;2022-10-16T08:54:02;32.13;;;28.63;;
35418;SDS011;21525;41.240;16.500;2022-10-16T08:58:57;36.08;;;29.88;;
35418;SDS011;21525;41.240;16.500;2022-10-16T09:01:24;34.63;;;29.40;;
35418;SDS011;21525;41.240;16.500;2022-10-16T09:06:58;38.67;;;30.70;;
35418;SDS011;21525;41.240;16.500;2022-10-16T09:15:13;33.72;;;26.08;;
35418;SDS011;21525;41.240;16.500;2022-10-16T09:22:53;29.83;;;25.27;;
35418;SDS011;21525;41.240;16.500;2022-10-16T09:25:29;31.57;;;25.50;;
35418;SDS011;21525;41.240;16.500;2022-10-16T09:27:56;29.02;;;25.25;;
35418;SDS011;21525;41.240;16.500;2022-10-16T09:30:22;30.77;;;25.42;;
35418;SDS011;21525;41.240;16.500;2022-10-16T09:32:51;29.23;;;25.25;;
35418;SDS011;21525;41.240;16.500;2022-10-16T09:35:22;32.50;;;26.25;;
35418;SDS011;21525;41.240;16.500;2022-10-16T09:37:56;31.10;;;25.20;;
35418;SDS011;21525;41.240;16.500;2022-10-16T09:40:32;27.73;;;23.48;;
35418;SDS011;21525;41.240;16.500;2022-10-16T09:43:07;35.47;;;30.40;;
35418;SDS011;21525;41.240;16.500;2022-10-16T09:45:53;33.17;;;26.52;;
35418;SDS011;21525;41.240;16.500;2022-10-16T09:48:23;25.50;;;21.65;;
35418;SDS011;21525;41.240;16.500;2022-10-16T09:51:00;31.80;;;23.45;;
35418;SDS011;21525;41.240;16.500;2022-10-16T09:53:37;30.30;;;24.58;;
35418;SDS011;21525;41.240;16.500;2022-10-16T09:56:09;27.80;;;24.33;;
35418;SDS011;21525;41.240;16.500;2022-10-16T09:58:50;29.55;;;22.60;;
35418;SDS011;21525;41.240;16.500;2022-10-16T10:01:21;28.45;;;23.80;;
35418;SDS011;21525;41.240;16.500;2022-10-16T10:03:55;32.45;;;25.33;;
35418;SDS011;21525;41.240;16.500;2022-10-16T10:06:47;31.42;;;25.10;;
35418;SDS011;21525;41.240;16.500;2022-10-16T10:09:23;29.98;;;24.30;;
35418;SDS011;21525;41.240;16.500;2022-10-16T10:19:38;29.17;;;25.05;;
35418;SDS011;21525;41.240;16.500;2022-10-16T10:22:19;28.75;;;25.65;;
35418;SDS011;21525;41.240;16.500;2022-10-16T10:33:21;31.52;;;26.92;;
35418;SDS011;21525;41.240;16.500;2022-10-16T10:36:32;33.00;;;27.25;;
35418;SDS011;21525;41.240;16.500;2022-10-16T10:39:19;35.13;;;27.88;;
35418;SDS011;21525;41.240;16.500;2022-10-16T10:41:54;31.55;;;26.77;;
35418;SDS011;21525;41.240;16.500;2022-10-16T10:44:28;31.67;;;26.17;;
35418;SDS011;21525;41.240;16.500;2022-10-16T10:58:13;34.85;;;28.85;;
35418;SDS011;21525;41.240;16.500;2022-10-16T11:00:57;32.88;;;27.52;;
35418;SDS011;21525;41.240;16.500;2022-10-16T11:06:43;32.95;;;26.95;;
35418;SDS011;21525;41.240;16.500;2022-10-16T11:09:16;32.10;;;28.35;;
35418;SDS011;21525;41.240;16.500;2022-10-16T11:11:52;33.05;;;28.40;;
35418;SDS011;21525;41.240;16.500;2022-10-16T11:20:03;33.13;;;28.73;;
35418;SDS011;21525;41.240;16.500;2022-10-16T11:25:15;35.47;;;28.85;;
35418;SDS011;21525;41.240;16.500;2022-10-16T11:27:43;33.20;;;29.27;;
35418;SDS011;21525;41.240;16.500;2022-10-16T11:30:26;33.78;;;30.13;;
35418;SDS011;21525;41.240;16.500;2022-10-16T11:41:24;35.08;;;29.25;;
35418;SDS011;21525;41.240;16.500;2022-10-16T11:49:26;34.72;;;28.50;;
35418;SDS011;21525;41.240;16.500;2022-10-16T11:52:07;33.53;;;29.85;;
35418;SDS011;21525;41.240;16.500;2022-10-16T11:54:44;34.75;;;30.10;;
35418;SDS011;21525;41.240;16.500;2022-10-16T11:57:24;36.08;;;29.10;;
35418;SDS011;21525;41.240;16.500;2022-10-16T12:00:02;37.15;;;30.20;;
35418;SDS011;21525;41.240;16.500;2022-10-16T12:08:10;38.83;;;29.10;;
35418;SDS011;21525;41.240;16.500;2022-10-16T12:10:38;36.88;;;28.92;;
35418;SDS011;21525;41.240;16.500;2022-10-16T12:16:07;35.67;;;30.33;;
35418;SDS011;21525;41.240;16.500;2022-10-16T12:18:47;36.97;;;29.30;;
35418;SDS011;21525;41.240;16.500;2022-10-16T12:21:15;35.28;;;29.73;;
35418;SDS011;21525;41.240;16.500;2022-10-16T12:23:48;33.25;;;28.60;;
35418;SDS011;21525;41.240;16.500;2022-10-16T12:28:57;39.58;;;30.92;;
35418;SDS011;21525;41.240;16.500;2022-10-16T12:31:41;36.35;;;31.42;;
35418;SDS011;21525;41.240;16.500;2022-10-16T12:34:20;35.03;;;29.95;;
35418;SDS011;21525;41.240;16.500;2022-10-16T12:36:50;35.17;;;29.77;;
35418;SDS011;21525;41.240;16.500;2022-10-16T12:39:20;35.72;;;30.02;;
35418;SDS011;21525;41.240;16.500;2022-10-16T12:41:48;37.65;;;29.00;;
35418;SDS011;21525;41.240;16.500;2022-10-16T12:44:31;37.25;;;31.10;;
35418;SDS011;21525;41.240;16.500;2022-10-16T12:46:58;36.47;;;30.80;;
35418;SDS011;21525;41.240;16.500;2022-10-16T12:49:37;38.67;;;31.20;;
35418;SDS011;21525;41.240;16.500;2022-10-16T12:52:22;36.42;;;29.67;;
35418;SDS011;21525;41.240;16.500;2022-10-16T12:54:50;35.90;;;31.15;;
35418;SDS011;21525;41.240;16.500;2022-10-16T12:57:32;40.30;;;32.20;;
35418;SDS011;21525;41.240;16.500;2022-10-16T13:22:54;60.13;;;46.88;;
35418;SDS011;21525;41.240;16.500;2022-10-16T13:28:22;38.60;;;32.95;;
35418;SDS011;21525;41.240;16.500;2022-10-16T13:30:54;38.42;;;31.13;;
35418;SDS011;21525;41.240;16.500;2022-10-16T13:36:24;38.88;;;32.78;;
35418;SDS011;21525;41.240;16.500;2022-10-16T13:38:59;38.83;;;33.05;;
35418;SDS011;21525;41.240;16.500;2022-10-16T13:41:30;35.60;;;30.50;;
35418;SDS011;21525;41.240;16.500;2022-10-16T13:43:56;40.05;;;32.83;;
35418;SDS011;21525;41.240;16.500;2022-10-16T13:46:23;39.78;;;33.85;;
35418;SDS011;21525;41.240;16.500;2022-10-16T13:48:57;37.80;;;31.23;;
35418;SDS011;21525;41.240;16.500;2022-10-16T13:51:24;44.05;;;36.95;;
35418;SDS011;21525;41.240;16.500;2022-10-16T13:53:51;37.35;;;32.20;;
35418;SDS011;21525;41.240;16.500;2022-10-16T13:56:18;38.30;;;32.13;;
35418;SDS011;21525;41.240;16.500;2022-10-16T13:58:57;38.83;;;33.15;;
35418;SDS011;21525;41.240;16.500;2022-10-16T14:01:31;41.95;;;34.40;;
35418;SDS011;21525;41.240;16.500;2022-10-16T14:04:04;38.22;;;32.55;;
35418;SDS011;21525;41.240;16.500;2022-10-16T14:06:33;38.70;;;32.03;;
35418;SDS011;21525;41.240;16.500;2022-10-16T14:11:27;37.88;;;33.08;;
35418;SDS011;21525;41.240;16.500;2022-10-16T14:13:54;38.75;;;31.63;;
35418;SDS011;21525;41.240;16.500;2022-10-16T14:16:25;38.15;;;33.10;;
35418;SDS011;21525;41.240;16.500;2022-10-16T14:18:57;36.67;;;30.90;;
35418;SDS011;21525;41.240;16.500;2022-10-16T14:21:29;41.38;;;33.97;;
35418;SDS011;21525;41.240;16.500;2022-10-16T14:23:55;37.85;;;32.75;;
35418;SDS011;21525;41.240;16.500;2022-10-16T14:26:27;36.85;;;31.33;;
35418;SDS011;21525;41.240;16.500;2022-10-16T14:29:10;35.10;;;31.27;;
35418;SDS011;21525;41.240;16.500;2022-10-16T14:31:38;35.63;;;29.35;;
35418;SDS011;21525;41.240;16.500;2022-10-16T14:36:53;42.05;;;33.88;;
35418;SDS011;21525;41.240;16.500;2022-10-16T14:39:20;36.10;;;30.98;;
35418;SDS011;21525;41.240;16.500;2022-10-16T14:41:48;37.28;;;30.77;;
35418;SDS011;21525;41.240;16.500;2022-10-16T14:44:17;37.42;;;31.13;;
35418;SDS011;21525;41.240;16.500;2022-10-16T14:46:44;37.75;;;31.52;;
35418;SDS011;21525;41.240;16.500;2022-10-16T14:51:41;39.17;;;32.25;;
35418;SDS011;21525;41.240;16.500;2022-10-16T14:54:09;37.75;;;31.80;;
35418;SDS011;21525;41.240;16.500;2022-10-16T14:59:07;35.35;;;29.02;;
35418;SDS011;21525;41.240;16.500;2022-10-16T15:01:39;38.85;;;32.97;;
35418;SDS011;21525;41.240;16.500;2022-10-16T15:04:04;39.22;;;32.45;;
35418;SDS011;21525;41.240;16.500;2022-10-16T15:06:30;39.78;;;31.10;;
35418;SDS011;21525;41.240;16.500;2022-10-16T15:08:56;40.17;;;32.17;;
35418;SDS011;21525;41.240;16.500;2022-10-16T15:11:23;40.58;;;33.55;;
35418;SDS011;21525;41.240;16.500;2022-10-16T15:13:48;41.28;;;34.53;;
35418;SDS011;21525;41.240;16.500;2022-10-16T15:16:15;38.22;;;31.02;;
35418;SDS011;21525;41.240;16.500;2022-10-16T15:18:41;36.58;;;30.73;;
35418;SDS011;21525;41.240;16.500;2022-10-16T15:21:08;35.47;;;30.75;;
35418;SDS011;21525;41.240;16.500;2022-10-16T15:23:44;41.33;;;33.70;;
35418;SDS011;21525;41.240;16.500;2022-10-16T15:26:10;38.88;;;31.80;;
35418;SDS011;21525;41.240;16.500;2022-10-16T15:28:36;39.17;;;31.63;;
35418;SDS011;21525;41.240;16.500;2022-10-16T15:31:01;39.20;;;31.95;;
35418;SDS011;21525;41.240;16.500;2022-10-16T15:33:29;37.97;;;31.63;;
35418;SDS011;21525;41.240;16.500;2022-10-16T15:35:59;39.55;;;33.13;;
35418;SDS011;21525;41.240;16.500;2022-10-16T15:38:25;38.22;;;33.45;;
35418;SDS011;21525;41.240;16.500;2022-10-16T15:40:52;37.42;;;31.60;;
35418;SDS011;21525;41.240;16.500;2022-10-16T15:43:18;39.90;;;32.20;;
35418;SDS011;21525;41.240;16.500;2022-10-16T15:45:44;37.10;;;31.20;;
35418;SDS011;21525;41.240;16.500;2022-10-16T15:48:26;40.88;;;32.00;;
35418;SDS011;21525;41.240;16.500;2022-10-16T15:50:52;40.72;;;33.00;;
35418;SDS011;21525;41.240;16.500;2022-10-16T15:53:18;37.20;;;31.25;;
35418;SDS011;21525;41.240;16.500;2022-10-16T15:55:43;36.58;;;32.33;;
35418;SDS011;21525;41.240;16.500;2022-10-16T15:58:09;39.97;;;33.20;;
35418;SDS011;21525;41.240;16.500;2022-10-16T16:00:35;40.05;;;34.90;;
35418;SDS011;21525;41.240;16.500;2022-10-16T16:03:01;36.78;;;31.70;;
35418;SDS011;21525;41.240;16.500;2022-10-16T16:05:27;43.78;;;36.05;;
35418;SDS011;21525;41.240;16.500;2022-10-16T16:07:53;46.83;;;36.55;;
35418;SDS011;21525;41.240;16.500;2022-10-16T16:10:19;41.65;;;34.30;;
35418;SDS011;21525;41.240;16.500;2022-10-16T16:12:46;41.47;;;35.17;;
35418;SDS011;21525;41.240;16.500;2022-10-16T16:15:17;42.92;;;36.00;;
35418;SDS011;21525;41.240;16.500;2022-10-16T16:17:44;39.90;;;33.58;;
35418;SDS011;21525;41.240;16.500;2022-10-16T16:20:09;40.22;;;33.88;;
35418;SDS011;21525;41.240;16.500;2022-10-16T16:22:35;44.28;;;36.47;;
35418;SDS011;21525;41.240;16.500;2022-10-16T16:25:01;41.42;;;34.13;;
35418;SDS011;21525;41.240;16.500;2022-10-16T16:27:27;41.35;;;33.03;;
35418;SDS011;21525;41.240;16.500;2022-10-16T16:29:55;41.73;;;34.03;;
35418;SDS011;21525;41.240;16.500;2022-10-16T16:32:21;45.17;;;36.13;;
35418;SDS011;21525;41.240;16.500;2022-10-16T16:34:47;41.00;;;34.65;;
35418;SDS011;21525;41.240;16.500;2022-10-16T16:37:13;39.55;;;33.95;;
35418;SDS011;21525;41.240;16.500;2022-10-16T16:39:39;39.65;;;32.45;;
35418;SDS011;21525;41.240;16.500;2022-10-16T16:42:04;40.65;;;33.45;;
35418;SDS011;21525;41.240;16.500;2022-10-16T16:44:33;44.97;;;35.53;;
35418;SDS011;21525;41.240;16.500;2022-10-16T16:47:01;41.53;;;33.70;;
35418;SDS011;21525;41.240;16.500;2022-10-16T16:49:31;44.05;;;34.83;;